Time;durP1;ratioP1;P1;durP2;ratioP2;P2;SDS_P1;SDS_P2;PMS_P1;PMS_P2;Temp;Humidity;BMP_temperature;BMP_pressure;BME280_temperature;BME280_humidity;BME280_pressure;Samples;Min_cycle;Max_cycle;Signal;HPM_P1;HPM_P2
2020/12/21 00:00:09;;;;;;;14.30;12.80;;;;;;;9.27;69.46;101563.69;5037525;28;20436;-71
2020/12/21 00:02:35;;;;;;;17.63;13.23;;;;;;;8.92;70.30;101562.69;5037543;28;20224;-72
2020/12/21 00:05:01;;;;;;;16.47;13.03;;;;;;;8.97;70.35;101568.91;5037801;28;20437;-70
2020/12/21 00:07:26;;;;;;;18.03;12.80;;;;;;;9.47;68.34;101557.28;5037314;28;20210;-72
2020/12/21 00:09:51;;;;;;;18.03;13.17;;;;;;;9.13;69.75;101556.34;5037385;28;20205;-71
2020/12/21 00:12:16;;;;;;;18.73;14.00;;;;;;;8.62;71.63;101555.72;5037845;28;20179;-72
2020/12/21 00:14:42;;;;;;;18.80;13.80;;;;;;;8.82;70.85;101552.84;5037417;28;20178;-70
2020/12/21 00:17:07;;;;;;;18.43;13.07;;;;;;;8.75;70.71;101552.66;5031632;28;20568;-71
2020/12/21 00:19:32;;;;;;;16.90;14.13;;;;;;;8.96;70.23;101543.72;5017467;28;20244;-71
2020/12/21 00:21:57;;;;;;;14.37;12.50;;;;;;;8.92;69.74;101542.75;5017381;28;20208;-73
2020/12/21 00:24:23;;;;;;;20.47;13.50;;;;;;;9.08;70.17;101545.81;5017330;28;20226;-70
2020/12/21 00:26:50;;;;;;;14.87;13.23;;;;;;;8.72;71.15;101552.56;5017772;28;20289;-71
2020/12/21 00:29:16;;;;;;;17.33;14.80;;;;;;;9.11;69.12;101556.31;5017331;28;20225;-71
2020/12/21 00:31:42;;;;;;;17.60;13.97;;;;;;;8.78;71.05;101562.25;5017644;28;20436;-70
2020/12/21 00:34:08;;;;;;;16.90;13.10;;;;;;;8.79;70.91;101558.81;5017845;28;20410;-70
2020/12/21 00:36:39;;;;;;;17.23;13.10;;;;;;;8.56;71.68;101571.13;5017456;28;20425;-70
2020/12/21 00:39:05;;;;;;;18.23;12.57;;;;;;;8.89;70.46;101562.56;5017225;28;20239;-70
2020/12/21 00:41:30;;;;;;;19.47;13.07;;;;;;;8.60;71.77;101557.38;5017751;28;20406;-70
2020/12/21 00:43:56;;;;;;;17.00;13.70;;;;;;;8.77;70.82;101563.13;5016454;28;20488;-71
2020/12/21 00:46:26;;;;;;;15.50;13.00;;;;;;;8.67;71.10;101559.31;5017221;28;20194;-71
2020/12/21 00:48:53;;;;;;;14.50;11.93;;;;;;;8.48;71.66;101562.19;5017460;28;20171;-71
2020/12/21 00:51:19;;;;;;;14.73;11.90;;;;;;;8.48;72.19;101562.19;5017288;28;20422;-71
2020/12/21 00:53:45;;;;;;;18.70;14.20;;;;;;;8.56;71.35;101556.41;5017042;28;20422;-70
2020/12/21 00:56:11;;;;;;;13.60;11.90;;;;;;;8.57;71.46;101550.38;5017576;28;20171;-70
2020/12/21 00:58:40;;;;;;;14.33;11.50;;;;;;;8.43;72.22;101556.84;5017021;28;20421;-71
2020/12/21 01:01:08;;;;;;;15.23;12.33;;;;;;;8.06;72.55;101564.31;5017147;28;20179;-71
2020/12/21 01:03:36;;;;;;;19.00;11.60;;;;;;;8.35;71.76;101561.78;5017340;28;20472;-70
2020/12/21 01:06:02;;;;;;;13.43;11.43;;;;;;;8.31;72.45;101559.91;5017071;28;20418;-71
2020/12/21 01:08:28;;;;;;;15.60;11.30;;;;;;;8.30;72.75;101558.16;5017164;28;20468;-70
2020/12/21 01:10:53;;;;;;;15.30;11.77;;;;;;;8.32;71.85;101561.69;5017450;28;20418;-70
2020/12/21 01:13:18;;;;;;;14.83;11.50;;;;;;;8.46;71.80;101571.66;5017209;28;20171;-71
2020/12/21 01:15:44;;;;;;;13.87;10.70;;;;;;;8.20;72.81;101577.75;5017138;28;20186;-70
2020/12/21 01:18:10;;;;;;;10.83;9.63;;;;;;;8.33;73.09;101581.63;5017404;28;20213;-71
2020/12/21 01:20:35;;;;;;;13.40;10.63;;;;;;;8.33;72.01;101573.81;5017054;28;20244;-72
2020/12/21 01:23:02;;;;;;;17.30;10.13;;;;;;;8.27;72.50;101573.66;5017179;28;20185;-71
2020/12/21 01:25:27;;;;;;;13.10;10.20;;;;;;;8.31;71.95;101580.72;5016919;28;20280;-70
2020/12/21 01:27:52;;;;;;;13.10;9.80;;;;;;;8.39;71.94;101587.03;5016982;28;20466;-70
2020/12/21 01:30:18;;;;;;;19.03;10.30;;;;;;;8.14;73.00;101579.28;5017280;28;20178;-70
2020/12/21 01:32:43;;;;;;;12.40;9.57;;;;;;;8.12;72.24;101587.00;5017030;28;20449;-71
2020/12/21 01:35:08;;;;;;;15.13;10.40;;;;;;;8.33;71.63;101583.34;5017005;28;20199;-71
2020/12/21 01:37:33;;;;;;;13.00;9.40;;;;;;;8.34;72.05;101580.78;5017320;28;20221;-71
2020/12/21 01:40:00;;;;;;;14.40;9.60;;;;;;;8.37;72.24;101580.88;5016850;28;20278;-71
2020/12/21 01:42:25;;;;;;;12.67;9.67;;;;;;;8.04;72.52;101586.75;5016862;28;20229;-72
2020/12/21 01:44:51;;;;;;;16.63;9.17;;;;;;;8.04;73.55;101584.16;5017289;28;20399;-71
2020/12/21 01:47:17;;;;;;;12.33;9.60;;;;;;;8.45;72.00;101581.19;5016931;28;20210;-71
2020/12/21 01:49:42;;;;;;;11.30;10.00;;;;;;;8.02;72.30;101591.00;5016778;28;20183;-71
2020/12/21 01:52:09;;;;;;;11.47;9.80;;;;;;;8.35;71.88;101587.78;5017286;28;20225;-71
2020/12/21 01:54:34;;;;;;;14.47;9.70;;;;;;;8.24;72.05;101581.31;5017360;28;20417;-71
2020/12/21 01:56:59;;;;;;;12.10;9.60;;;;;;;8.56;71.30;101574.59;5019709;28;20421;-72
2020/12/21 01:59:25;;;;;;;14.10;8.73;;;;;;;8.50;71.38;101573.53;5020766;28;20171;-71
2020/12/21 02:01:51;;;;;;;11.60;8.60;;;;;;;8.51;71.10;101577.88;5020448;28;20175;-72
2020/12/21 02:04:16;;;;;;;13.10;8.80;;;;;;;8.50;71.30;101581.34;5019739;28;20824;-73
2020/12/21 02:06:42;;;;;;;10.83;8.57;;;;;;;8.59;71.54;101579.00;5020696;28;20245;-72
2020/12/21 02:09:07;;;;;;;11.33;7.90;;;;;;;8.14;72.71;101574.94;5020230;28;20185;-72
2020/12/21 02:11:32;;;;;;;13.87;8.33;;;;;;;8.03;72.65;101582.38;5020376;28;20206;-72
2020/12/21 02:13:57;;;;;;;13.63;7.77;;;;;;;8.41;71.78;101584.47;5020567;28;20171;-70
2020/12/21 02:16:23;;;;;;;14.30;8.90;;;;;;;8.34;71.64;101585.13;5020211;28;20179;-72
2020/12/21 02:18:48;;;;;;;13.27;8.93;;;;;;;8.33;72.52;101583.34;5020074;28;20456;-72
2020/12/21 02:21:13;;;;;;;10.50;8.33;;;;;;;8.82;71.38;101584.94;5020385;28;20237;-72
2020/12/21 02:23:39;;;;;;;15.00;9.47;;;;;;;9.01;70.20;101583.78;5019920;28;20486;-71
2020/12/21 02:26:04;;;;;;;20.67;11.27;;;;;;;8.99;70.65;101582.81;5019953;28;20183;-71
2020/12/21 02:28:29;;;;;;;10.50;9.40;;;;;;;9.17;69.32;101586.81;5020753;28;20195;-74
2020/12/21 02:30:55;;;;;;;14.00;9.10;;;;;;;9.16;69.46;101579.84;5019916;28;20197;-72
2020/12/21 02:33:20;;;;;;;13.20;8.93;;;;;;;9.05;69.57;101580.41;5019897;28;20418;-71
2020/12/21 02:35:45;;;;;;;11.20;8.90;;;;;;;8.56;71.35;101581.50;5020120;28;20221;-71
2020/12/21 02:38:11;;;;;;;11.60;8.40;;;;;;;8.80;70.78;101586.59;5019913;28;20310;-70
2020/12/21 02:40:37;;;;;;;14.80;9.30;;;;;;;8.72;70.67;101572.47;5019635;28;20265;-72
2020/12/21 02:43:03;;;;;;;16.37;9.77;;;;;;;8.82;70.66;101578.84;5020312;28;20163;-71
2020/12/21 02:45:28;;;;;;;13.17;8.87;;;;;;;8.54;71.31;101578.00;5019682;28;20464;-72
2020/12/21 02:47:54;;;;;;;12.43;9.10;;;;;;;8.56;71.04;101577.19;5019498;28;20484;-71
2020/12/21 02:50:19;;;;;;;13.63;9.90;;;;;;;8.47;71.31;101582.13;5019788;28;20218;-72
2020/12/21 02:52:44;;;;;;;15.40;10.43;;;;;;;8.62;70.90;101565.22;5019600;28;20274;-71
2020/12/21 02:55:10;;;;;;;13.43;9.53;;;;;;;8.51;71.25;101572.69;5019594;28;20250;-71
2020/12/21 02:57:35;;;;;;;17.83;10.40;;;;;;;8.28;72.06;101570.22;5019666;28;20167;-72
2020/12/21 03:00:01;;;;;;;13.40;9.37;;;;;;;8.66;70.85;101565.38;5019294;28;20177;-77
2020/12/21 03:02:26;;;;;;;11.33;9.63;;;;;;;8.63;70.90;101565.25;5018756;28;20277;-76
2020/12/21 03:04:51;;;;;;;11.30;8.33;;;;;;;8.41;71.42;101571.47;5019532;28;20209;-72
2020/12/21 03:07:16;;;;;;;14.63;10.50;;;;;;;8.18;73.00;101574.22;5018192;28;20210;-71
2020/12/21 03:09:42;;;;;;;15.30;10.10;;;;;;;8.44;71.88;101574.16;5019003;28;20189;-72
2020/12/21 03:12:07;;;;;;;11.03;9.20;;;;;;;8.23;72.84;101588.25;5019523;28;20472;-71
2020/12/21 03:14:32;;;;;;;15.17;10.03;;;;;;;8.54;71.42;101584.06;5019146;28;20306;-71
2020/12/21 03:16:58;;;;;;;14.63;9.67;;;;;;;8.34;72.25;101582.53;5019079;28;20225;-71
2020/12/21 03:19:23;;;;;;;20.20;10.20;;;;;;;8.27;72.57;101581.44;5019251;28;20171;-71
2020/12/21 03:21:48;;;;;;;16.97;10.10;;;;;;;8.27;72.20;101576.25;5018976;28;20175;-70
2020/12/21 03:24:13;;;;;;;12.63;10.40;;;;;;;8.25;72.57;101585.69;5018757;28;20222;-71
2020/12/21 03:26:39;;;;;;;18.80;10.57;;;;;;;8.02;73.55;101582.34;5019149;28;20190;-71
2020/12/21 03:29:04;;;;;;;14.90;9.93;;;;;;;8.17;73.14;101584.56;5018683;28;20230;-71
2020/12/21 03:31:29;;;;;;;15.97;10.37;;;;;;;8.08;73.44;101592.94;5018825;28;20548;-71
2020/12/21 03:33:55;;;;;;;18.00;11.37;;;;;;;8.18;72.89;101584.59;5019028;28;20529;-70
2020/12/21 03:36:21;;;;;;;12.57;10.47;;;;;;;7.97;73.38;101583.88;5018558;28;20260;-71
2020/12/21 03:38:46;;;;;;;12.20;10.90;;;;;;;8.07;73.21;101583.38;5018500;28;20187;-71
2020/12/21 03:41:12;;;;;;;20.03;11.10;;;;;;;8.27;72.54;101582.31;5018938;28;20429;-70
2020/12/21 03:43:37;;;;;;;15.90;10.87;;;;;;;8.26;72.38;101583.13;5018540;28;20210;-71
2020/12/21 03:46:02;;;;;;;12.63;10.00;;;;;;;8.45;72.42;101577.66;5018366;28;20178;-71
2020/12/21 03:48:28;;;;;;;19.47;11.13;;;;;;;8.09;73.38;101590.38;5018696;28;20195;-70
2020/12/21 03:50:53;;;;;;;15.30;10.37;;;;;;;8.22;72.71;101585.59;5018239;28;20170;-70
2020/12/21 03:53:18;;;;;;;15.53;10.90;;;;;;;8.34;72.34;101586.00;5018386;28;20429;-71
2020/12/21 03:55:43;;;;;;;14.00;10.47;;;;;;;8.51;72.65;101583.06;5018914;28;20171;-71
2020/12/21 03:58:09;;;;;;;13.90;10.83;;;;;;;8.61;71.19;101579.09;5018308;28;20521;-69
2020/12/21 04:00:34;;;;;;;20.63;10.70;;;;;;;8.53;71.94;101581.44;5018086;28;20210;-70
2020/12/21 04:02:59;;;;;;;15.97;10.50;;;;;;;8.34;71.97;101586.00;5018882;28;20183;-70
2020/12/21 04:05:25;;;;;;;13.50;10.67;;;;;;;8.43;72.30;101575.91;5017988;28;20202;-71
2020/12/21 04:07:50;;;;;;;14.20;10.50;;;;;;;8.63;71.08;101583.47;5018030;28;20211;-70
2020/12/21 04:10:15;;;;;;;16.37;10.57;;;;;;;8.74;71.91;101576.00;5018310;28;20194;-70
2020/12/21 04:12:41;;;;;;;16.77;10.87;;;;;;;8.71;70.69;101574.22;5018060;28;20187;-71
2020/12/21 04:15:06;;;;;;;15.83;12.03;;;;;;;8.60;71.53;101570.38;5018062;28;20253;-71
2020/12/21 04:17:31;;;;;;;13.57;10.47;;;;;;;8.64;71.16;101566.16;5032332;28;20178;-71
2020/12/21 04:19:57;;;;;;;17.53;11.27;;;;;;;8.59;71.50;101555.59;5035175;28;20170;-70
2020/12/21 04:22:22;;;;;;;12.70;10.90;;;;;;;8.56;70.66;101572.00;5017876;28;20239;-71
2020/12/21 04:24:48;;;;;;;17.00;11.60;;;;;;;8.47;71.33;101565.63;5026781;28;20230;-71
2020/12/21 04:27:13;;;;;;;15.80;11.63;;;;;;;8.72;71.13;101562.94;5020296;28;20298;-71
2020/12/21 04:29:38;;;;;;;18.13;12.40;;;;;;;8.91;69.81;101566.13;5017970;28;20202;-71
2020/12/21 04:32:04;;;;;;;16.70;11.60;;;;;;;9.14;70.18;101571.13;5023034;28;20174;-70
2020/12/21 04:34:29;;;;;;;14.97;11.37;;;;;;;9.08;69.64;101572.69;5027916;28;20201;-71
2020/12/21 04:36:55;;;;;;;15.43;11.20;;;;;;;8.52;71.48;101574.47;5020566;28;20425;-70
2020/12/21 04:39:23;;;;;;;13.57;11.23;;;;;;;8.87;70.49;101575.53;5017281;28;20187;-71
2020/12/21 04:41:55;;;;;;;15.10;10.63;;;;;;;8.80;70.77;101572.72;5015758;28;20175;-71
2020/12/21 04:44:21;;;;;;;17.00;11.60;;;;;;;8.80;70.80;101575.31;5016184;28;20505;-71
2020/12/21 04:46:48;;;;;;;19.17;11.67;;;;;;;8.94;70.35;101576.59;5015627;28;20539;-73
2020/12/21 04:49:15;;;;;;;19.33;10.63;;;;;;;8.74;70.65;101579.50;5014489;28;20429;-71
2020/12/21 04:51:41;;;;;;;14.33;10.57;;;;;;;8.94;70.72;101568.81;5015864;28;20454;-70
2020/12/21 04:54:08;;;;;;;16.93;11.50;;;;;;;8.65;70.47;101571.41;5016101;28;20468;-71
2020/12/21 04:56:34;;;;;;;15.13;11.40;;;;;;;8.80;70.17;101570.13;5017077;28;20182;-70
2020/12/21 04:59:00;;;;;;;18.40;10.57;;;;;;;8.90;69.84;101566.94;5017030;28;20843;-70
2020/12/21 05:01:25;;;;;;;13.23;10.30;;;;;;;8.67;70.34;101574.91;5017333;28;20457;-70
2020/12/21 05:03:50;;;;;;;13.07;11.33;;;;;;;8.95;69.96;101570.56;5017477;28;20261;-70
2020/12/21 05:06:16;;;;;;;16.80;10.87;;;;;;;8.75;70.96;101578.66;5017765;28;20452;-71
2020/12/21 05:08:41;;;;;;;16.00;10.63;;;;;;;8.70;70.78;101569.84;5017306;28;20233;-71
2020/12/21 05:11:06;;;;;;;17.87;10.63;;;;;;;8.69;70.50;101570.66;5017290;28;20250;-71
2020/12/21 05:13:33;;;;;;;13.20;9.70;;;;;;;8.63;70.70;101570.47;5017636;28;20198;-71
2020/12/21 05:15:59;;;;;;;19.87;11.37;;;;;;;8.80;70.13;101576.19;5016485;28;20175;-71
2020/12/21 05:18:34;;;;;;;14.03;11.37;;;;;;;8.80;70.40;101577.94;5017115;28;20714;-70
2020/12/21 05:21:04;;;;;;;13.87;11.00;;;;;;;8.91;70.44;101580.00;5017152;28;20427;-71
2020/12/21 05:23:30;;;;;;;14.97;10.80;;;;;;;8.76;70.41;101570.00;5017063;28;20403;-70
2020/12/21 05:25:58;;;;;;;11.97;10.00;;;;;;;8.64;70.69;101581.75;5017453;28;20414;-70
2020/12/21 05:28:27;;;;;;;15.93;11.90;;;;;;;8.89;70.41;101576.47;5017235;28;20210;-71
2020/12/21 05:31:02;;;;;;;15.00;11.67;;;;;;;8.93;69.92;101582.66;5020397;28;20396;-70
2020/12/21 05:33:27;;;;;;;22.00;12.20;;;;;;;8.94;69.79;101576.59;5020978;28;20671;-71
2020/12/21 05:36:03;;;;;;;19.17;12.07;;;;;;;8.67;70.88;101581.84;5020945;28;20403;-71
2020/12/21 05:38:28;;;;;;;16.40;12.20;;;;;;;8.93;69.99;101580.06;5020968;28;20174;-71
2020/12/21 05:41:07;;;;;;;16.57;13.00;;;;;;;9.10;69.13;101585.75;5019910;28;20508;-70
2020/12/21 05:43:32;;;;;;;24.23;14.03;;;;;;;9.36;68.52;101580.41;5020952;28;20579;-71
2020/12/21 05:46:07;;;;;;;19.60;13.47;;;;;;;8.76;70.61;101589.94;5020875;28;20456;-71
2020/12/21 05:48:38;;;;;;;25.70;13.50;;;;;;;8.65;71.43;101581.81;5020853;28;20202;-71
2020/12/21 05:51:05;;;;;;;17.27;11.80;;;;;;;8.63;71.43;101588.66;5020029;28;20508;-71
2020/12/21 05:53:35;;;;;;;16.57;11.77;;;;;;;8.77;70.97;101571.78;5020203;28;20501;-70
2020/12/21 05:56:02;;;;;;;21.07;12.63;;;;;;;9.00;69.83;101575.91;5020465;28;20430;-71
2020/12/21 05:58:31;;;;;;;19.57;11.90;;;;;;;8.75;71.09;101576.06;5020400;28;20400;-71
2020/12/21 06:00:57;;;;;;;18.93;12.60;;;;;;;8.92;70.01;101578.28;5020785;28;20413;-70
2020/12/21 06:03:35;;;;;;;17.20;12.90;;;;;;;8.88;70.59;101579.91;5020392;28;20499;-70
2020/12/21 06:06:06;;;;;;;13.90;10.30;;;;;;;9.03;69.70;101589.88;5020409;28;20405;-71
2020/12/21 06:08:34;;;;;;;17.60;13.40;;;;;;;8.87;70.17;101580.72;5019606;28;20436;-71
2020/12/21 06:11:08;;;;;;;13.97;11.33;;;;;;;8.93;69.98;101578.34;5020130;28;20437;-70
2020/12/21 06:13:36;;;;;;;17.00;11.40;;;;;;;8.94;69.87;101584.41;5020249;28;20488;-71
2020/12/21 06:16:01;;;;;;;16.17;12.80;;;;;;;8.76;70.60;101577.81;5019499;28;20421;-71
2020/12/21 06:18:27;;;;;;;16.90;11.00;;;;;;;9.05;70.10;101582.13;5019748;28;20668;-71
2020/12/21 06:20:52;;;;;;;18.30;11.70;;;;;;;8.91;70.23;101585.19;5019995;28;20175;-71
2020/12/21 06:23:17;;;;;;;13.97;11.30;;;;;;;9.03;69.31;101584.69;5019368;28;20206;-71
2020/12/21 06:25:42;;;;;;;20.33;11.93;;;;;;;8.69;70.83;101586.25;5020229;28;20254;-71
2020/12/21 06:28:08;;;;;;;17.40;11.43;;;;;;;8.68;70.73;101587.09;5019900;28;20213;-71
2020/12/21 06:30:33;;;;;;;16.60;11.17;;;;;;;9.04;69.98;101594.25;5019879;28;20206;-72
2020/12/21 06:33:04;;;;;;;18.27;11.10;;;;;;;8.91;70.08;101594.72;5020380;28;20171;-71
2020/12/21 06:35:40;;;;;;;14.80;11.00;;;;;;;8.81;71.00;101603.06;5019834;28;20182;-71
2020/12/21 06:38:05;;;;;;;18.50;11.23;;;;;;;8.94;70.68;101592.19;5019797;28;20388;-72
2020/12/21 06:40:32;;;;;;;15.67;10.90;;;;;;;8.87;69.97;101593.72;5018528;28;20414;-72
2020/12/21 06:43:07;;;;;;;18.47;11.50;;;;;;;8.70;70.88;101594.94;5019347;28;20179;-70
2020/12/21 06:45:36;;;;;;;17.77;10.87;;;;;;;9.13;69.72;101600.56;5019666;28;20425;-71
2020/12/21 06:48:02;;;;;;;16.73;10.80;;;;;;;8.96;70.34;101593.16;5019664;28;20514;-70
2020/12/21 06:50:27;;;;;;;16.43;11.73;;;;;;;8.81;70.68;101597.88;5019822;28;20417;-71
2020/12/21 06:52:52;;;;;;;16.00;11.07;;;;;;;8.80;70.23;101594.41;5019621;28;20440;-71
2020/12/21 06:55:18;;;;;;;16.27;11.10;;;;;;;8.45;71.53;101596.75;5019490;28;20182;-71
2020/12/21 06:57:50;;;;;;;15.77;10.70;;;;;;;8.47;71.07;101600.31;5019556;28;20495;-72
2020/12/21 07:00:20;;;;;;;16.43;11.23;;;;;;;8.46;71.14;101597.63;5033249;28;20320;-72
2020/12/21 07:02:47;;;;;;;19.63;10.90;;;;;;;8.48;71.29;101594.25;5038870;28;20421;-71
2020/12/21 07:05:12;;;;;;;14.50;11.33;;;;;;;8.63;71.26;101593.84;5038313;28;20440;-70
2020/12/21 07:07:37;;;;;;;16.50;11.17;;;;;;;8.39;71.30;101594.81;5038929;28;20475;-70
2020/12/21 07:10:02;;;;;;;20.20;11.93;;;;;;;8.34;71.33;101603.31;5039119;28;20210;-71
2020/12/21 07:12:28;;;;;;;21.93;11.80;;;;;;;8.15;72.13;101607.88;5038919;28;20206;-71
2020/12/21 07:14:53;;;;;;;15.30;11.80;;;;;;;8.42;71.33;101605.31;5038867;28;20182;-71
2020/12/21 07:17:20;;;;;;;17.77;11.30;;;;;;;8.10;73.53;101606.84;5039204;28;20170;-71
2020/12/21 07:19:45;;;;;;;16.20;10.97;;;;;;;8.11;73.21;101618.13;5038721;28;20170;-71
2020/12/21 07:22:11;;;;;;;14.20;11.60;;;;;;;7.75;74.15;101624.69;5038806;28;20653;-71
2020/12/21 07:24:38;;;;;;;16.83;11.60;;;;;;;8.45;71.45;101621.84;5038595;28;20308;-71
2020/12/21 07:27:04;;;;;;;17.43;12.13;;;;;;;8.11;71.97;101625.94;5038339;28;20551;-71
2020/12/21 07:29:36;;;;;;;17.07;11.80;;;;;;;8.47;71.04;101628.91;5038575;28;20419;-72
2020/12/21 07:32:02;;;;;;;17.47;11.53;;;;;;;8.31;71.82;101624.88;5038531;28;20178;-71
2020/12/21 07:34:27;;;;;;;16.37;11.57;;;;;;;8.28;71.38;101622.19;5038137;28;20507;-76
2020/12/21 07:36:53;;;;;;;14.63;10.40;;;;;;;8.60;71.02;101619.75;5037720;28;20806;-75
2020/12/21 07:39:19;;;;;;;15.13;10.50;;;;;;;8.41;71.22;101619.13;5038266;28;20247;-73
2020/12/21 07:41:46;;;;;;;17.93;11.47;;;;;;;8.28;70.56;101611.78;5038656;28;20167;-77
2020/12/21 07:44:14;;;;;;;15.57;10.93;;;;;;;8.18;71.66;101613.19;5038522;28;20272;-72
2020/12/21 07:46:43;;;;;;;18.13;12.10;;;;;;;8.36;71.23;101620.72;5037125;28;20435;-72
2020/12/21 07:49:09;;;;;;;17.80;12.00;;;;;;;8.38;70.83;101613.84;5038076;28;20412;-72
2020/12/21 07:51:36;;;;;;;23.00;12.40;;;;;;;8.37;70.57;101625.06;5038106;28;20462;-71
2020/12/21 07:54:02;;;;;;;14.23;11.23;;;;;;;8.40;71.12;101619.09;5037099;28;20723;-72
2020/12/21 07:56:27;;;;;;;17.30;11.70;;;;;;;8.56;70.23;101618.78;5037203;28;20439;-72
2020/12/21 07:58:52;;;;;;;17.43;11.80;;;;;;;8.32;71.26;101624.03;5038252;28;20563;-72
2020/12/21 08:01:22;;;;;;;17.47;10.50;;;;;;;8.33;71.58;101612.81;5037842;28;20209;-71
2020/12/21 08:03:50;;;;;;;17.27;10.97;;;;;;;8.45;70.19;101614.97;5038079;28;20558;-72
2020/12/21 08:06:18;;;;;;;15.23;10.70;;;;;;;8.50;70.33;101623.78;5038171;28;20408;-71
2020/12/21 08:08:43;;;;;;;14.60;10.60;;;;;;;8.33;70.57;101617.13;5037477;28;20494;-70
2020/12/21 08:11:13;;;;;;;16.40;10.50;;;;;;;8.30;70.92;101619.63;5037461;28;20421;-72
2020/12/21 08:13:44;;;;;;;15.93;9.73;;;;;;;7.85;72.14;101624.19;5038177;28;20162;-71
2020/12/21 08:16:09;;;;;;;16.50;9.67;;;;;;;8.23;71.37;101623.75;5037743;28;20444;-71
2020/12/21 08:18:35;;;;;;;13.77;9.97;;;;;;;8.55;70.21;101621.31;5037582;28;20417;-71
2020/12/21 08:21:01;;;;;;;15.93;10.00;;;;;;;8.38;70.22;101624.22;5037851;28;20190;-72
2020/12/21 08:23:28;;;;;;;15.30;10.63;;;;;;;8.48;69.60;101624.56;5037280;28;20551;-72
2020/12/21 08:25:54;;;;;;;14.80;9.13;;;;;;;8.61;70.06;101628.47;5037497;28;20396;-71
2020/12/21 08:28:30;;;;;;;13.97;9.00;;;;;;;8.42;70.82;101628.69;5037669;28;20453;-72
2020/12/21 08:31:42;;;;;;;16.63;9.30;;;;;;;8.41;70.31;101619.13;5037363;28;20504;-72
2020/12/21 08:34:07;;;;;;;19.57;9.33;;;;;;;8.55;69.66;101630.03;5035887;28;20482;-71
2020/12/21 08:36:39;;;;;;;16.20;9.20;;;;;;;8.62;69.72;101630.19;5035906;28;20512;-71
2020/12/21 08:39:14;;;;;;;18.73;8.80;;;;;;;9.55;66.70;101620.84;5036570;28;20272;-72
2020/12/21 08:41:42;;;;;;;11.50;8.10;;;;;;;9.18;66.02;101622.41;5037374;28;20404;-72
2020/12/21 08:44:12;;;;;;;10.33;7.90;;;;;;;10.36;63.13;101622.13;5038290;28;20667;-81
2020/12/21 08:46:40;;;;;;;11.37;7.17;;;;;;;10.08;62.99;101616.22;5037734;28;20669;-77
2020/12/21 08:49:07;;;;;;;15.30;7.80;;;;;;;10.83;61.40;101611.06;5037397;28;20653;-77
2020/12/21 08:51:32;;;;;;;12.63;7.80;;;;;;;10.82;60.80;101616.25;5037845;28;20387;-77
2020/12/21 08:53:57;;;;;;;11.93;7.40;;;;;;;11.26;59.32;101611.13;5037650;28;20478;-76
2020/12/21 08:56:22;;;;;;;16.60;7.37;;;;;;;11.77;57.38;101609.50;5037244;28;20178;-75
2020/12/21 08:58:48;;;;;;;9.50;6.30;;;;;;;12.51;54.93;101600.34;5037173;28;20173;-75
2020/12/21 09:01:13;;;;;;;11.73;6.60;;;;;;;12.37;55.33;101601.88;5036683;28;20190;-73
2020/12/21 09:03:38;;;;;;;10.43;6.90;;;;;;;12.66;54.55;101604.91;5035427;28;20612;-74
2020/12/21 09:06:04;;;;;;;12.90;6.47;;;;;;;12.26;54.90;101615.63;5037105;28;20186;-74
2020/12/21 09:08:29;;;;;;;11.77;6.67;;;;;;;12.45;54.32;101618.56;5036816;28;20214;-74
2020/12/21 09:10:55;;;;;;;13.53;7.53;;;;;;;12.03;55.13;101611.75;5036832;28;20182;-73
2020/12/21 09:13:20;;;;;;;11.30;6.63;;;;;;;12.95;52.59;101612.34;5037217;28;20166;-73
2020/12/21 09:15:46;;;;;;;9.40;6.43;;;;;;;12.40;54.44;101615.00;5036808;28;20193;-74
2020/12/21 09:18:13;;;;;;;12.83;6.33;;;;;;;12.67;53.51;101616.28;5036832;28;20263;-72
2020/12/21 09:20:39;;;;;;;9.43;6.10;;;;;;;13.24;52.01;101614.44;5036964;28;20159;-72
2020/12/21 09:23:04;;;;;;;9.50;6.17;;;;;;;13.96;49.57;101603.91;5036788;28;20411;-71
2020/12/21 09:25:29;;;;;;;11.37;6.40;;;;;;;13.89;49.28;101596.88;5036400;28;20599;-72
2020/12/21 09:27:55;;;;;;;10.60;6.50;;;;;;;14.49;48.21;101600.88;5037047;28;20190;-73
2020/12/21 09:30:20;;;;;;;13.20;6.93;;;;;;;14.12;49.25;101610.19;5036483;28;20177;-72
2020/12/21 09:32:45;;;;;;;8.93;5.87;;;;;;;13.03;51.17;101604.56;5036615;28;20468;-74
2020/12/21 09:35:11;;;;;;;8.00;5.80;;;;;;;11.97;54.97;101602.06;5037097;28;20162;-75
2020/12/21 09:37:36;;;;;;;7.83;5.70;;;;;;;11.67;56.45;101605.84;5036704;28;20212;-77
2020/12/21 09:40:01;;;;;;;6.10;5.50;;;;;;;12.55;54.07;101606.50;5037236;28;20217;-80
2020/12/21 09:42:27;;;;;;;8.53;5.50;;;;;;;12.92;52.70;101607.94;5037893;28;20170;-78
2020/12/21 09:44:52;;;;;;;11.00;6.77;;;;;;;13.41;51.60;101606.81;5037212;28;20269;-78
2020/12/21 09:47:17;;;;;;;10.23;6.20;;;;;;;12.58;53.12;101606.53;5036339;28;20217;-77
2020/12/21 09:49:43;;;;;;;8.90;6.30;;;;;;;12.66;52.92;101607.53;5036751;28;20213;-77
2020/12/21 09:52:09;;;;;;;8.70;6.10;;;;;;;12.05;54.64;101608.31;5036218;28;20166;-74
2020/12/21 09:54:34;;;;;;;8.60;5.43;;;;;;;12.01;54.52;101603.88;5036344;28;20683;-73
2020/12/21 09:57:01;;;;;;;6.87;5.43;;;;;;;12.03;54.56;101603.91;5036893;28;20179;-79
2020/12/21 09:59:26;;;;;;;11.40;5.63;;;;;;;11.66;55.56;101606.69;5036652;28;20177;-76
2020/12/21 10:01:51;;;;;;;11.10;5.60;;;;;;;12.55;53.93;101594.31;5036135;28;20384;-74
2020/12/21 10:04:17;;;;;;;9.23;4.93;;;;;;;12.33;53.54;101595.72;5036627;28;20520;-75
2020/12/21 10:06:51;;;;;;;9.40;5.70;;;;;;;12.41;53.65;101588.00;5036112;28;20544;-74
2020/12/21 10:09:17;;;;;;;8.83;5.37;;;;;;;12.51;54.08;101584.66;5036367;28;20174;-76
2020/12/21 10:11:42;;;;;;;9.40;5.23;;;;;;;13.10;51.64;101573.25;5036601;28;20728;-76
2020/12/21 10:14:08;;;;;;;10.23;5.80;;;;;;;13.43;50.40;101581.53;5036101;28;20427;-74
2020/12/21 10:16:33;;;;;;;5.93;4.80;;;;;;;13.39;50.62;101575.38;5039014;28;20170;-74
2020/12/21 10:18:58;;;;;;;8.30;5.60;;;;;;;13.59;49.00;101559.00;5040247;28;20170;-74
2020/12/21 10:21:23;;;;;;;9.13;5.97;;;;;;;14.10;48.85;101567.34;5040083;28;20177;-77
2020/12/21 10:23:49;;;;;;;11.00;6.00;;;;;;;14.01;48.92;101567.28;5039738;28;20261;-74
2020/12/21 10:26:14;;;;;;;9.53;5.47;;;;;;;14.68;47.31;101559.06;5040055;28;20246;-76
2020/12/21 10:28:39;;;;;;;7.60;4.70;;;;;;;14.01;48.30;101562.91;5039608;28;20197;-74
2020/12/21 10:31:05;;;;;;;10.97;5.67;;;;;;;14.06;47.59;101553.34;5039509;28;20193;-75
2020/12/21 10:33:30;;;;;;;7.03;4.73;;;;;;;14.97;46.29;101547.81;5039933;28;20166;-73
2020/12/21 10:35:55;;;;;;;10.67;5.10;;;;;;;14.48;47.14;101551.88;5038774;28;20175;-73
2020/12/21 10:38:20;;;;;;;10.27;5.40;;;;;;;14.41;47.42;101550.09;5039377;28;20529;-72
2020/12/21 10:40:46;;;;;;;9.40;6.10;;;;;;;15.01;45.86;101535.59;5039503;28;20177;-74
2020/12/21 10:43:11;;;;;;;7.57;4.90;;;;;;;14.04;47.98;101535.81;5039470;28;20178;-75
2020/12/21 10:45:38;;;;;;;7.30;4.93;;;;;;;13.34;50.25;101545.63;5039452;28;20571;-74
2020/12/21 10:48:04;;;;;;;13.07;5.83;;;;;;;13.91;48.96;101535.72;5039605;28;20198;-74
2020/12/21 10:50:29;;;;;;;8.63;5.20;;;;;;;14.17;47.85;101531.53;5039257;28;20689;-74
2020/12/21 10:52:54;;;;;;;13.67;5.50;;;;;;;14.10;48.39;101528.88;5039270;28;20388;-74
2020/12/21 10:55:20;;;;;;;10.73;5.57;;;;;;;14.35;47.50;101523.81;5039618;28;20162;-74
2020/12/21 10:57:45;;;;;;;9.20;4.93;;;;;;;13.71;48.71;101532.91;5039211;28;20591;-74
2020/12/21 11:00:10;;;;;;;8.63;5.27;;;;;;;13.15;50.33;101531.41;5039003;28;20166;-74
2020/12/21 11:02:35;;;;;;;8.33;5.30;;;;;;;12.52;52.08;101530.63;5039604;28;20174;-73
2020/12/21 11:05:01;;;;;;;11.40;5.60;;;;;;;12.53;52.74;101527.13;5038864;28;20194;-77
2020/12/21 11:07:28;;;;;;;7.37;4.97;;;;;;;13.58;49.69;101515.31;5038946;28;20240;-77
2020/12/21 11:09:54;;;;;;;10.10;5.20;;;;;;;13.45;50.00;101517.81;5039460;28;20177;-78
2020/12/21 11:12:22;;;;;;;11.77;4.53;;;;;;;13.20;50.83;101506.16;5039085;28;20475;-73
2020/12/21 11:14:48;;;;;;;7.43;4.57;;;;;;;13.16;50.13;101511.38;5038882;28;20163;-72